sensor_id;sensor_type;location;lat;lon;timestamp;temperature;humidity
8988;DHT22;4529;51.360;12.474;2022-10-13T00:00:45;8.30;99.90
8988;DHT22;4529;51.360;12.474;2022-10-13T00:05:49;8.50;99.90
8988;DHT22;4529;51.360;12.474;2022-10-13T00:10:53;8.60;99.90
8988;DHT22;4529;51.360;12.474;2022-10-13T00:15:57;8.80;99.90
8988;DHT22;4529;51.360;12.474;2022-10-13T00:21:05;8.80;99.90
8988;DHT22;4529;51.360;12.474;2022-10-13T00:26:07;8.90;99.90
8988;DHT22;4529;51.360;12.474;2022-10-13T00:31:26;8.90;99.90
8988;DHT22;4529;51.360;12.474;2022-10-13T00:36:27;8.90;99.90
8988;DHT22;4529;51.360;12.474;2022-10-13T00:41:32;9.10;99.90
8988;DHT22;4529;51.360;12.474;2022-10-13T00:46:35;9.10;99.90
8988;DHT22;4529;51.360;12.474;2022-10-13T00:51:43;9.00;99.90
8988;DHT22;4529;51.360;12.474;2022-10-13T00:56:46;8.90;99.90
8988;DHT22;4529;51.360;12.474;2022-10-13T01:01:51;8.90;99.90
8988;DHT22;4529;51.360;12.474;2022-10-13T01:06:55;8.90;99.90
8988;DHT22;4529;51.360;12.474;2022-10-13T01:17:35;8.90;99.90
8988;DHT22;4529;51.360;12.474;2022-10-13T01:22:59;9.00;99.90
8988;DHT22;4529;51.360;12.474;2022-10-13T01:39:31;9.10;99.90
8988;DHT22;4529;51.360;12.474;2022-10-13T01:44:34;9.20;99.90
8988;DHT22;4529;51.360;12.474;2022-10-13T01:49:37;9.20;99.90
8988;DHT22;4529;51.360;12.474;2022-10-13T01:54:41;9.20;99.90
8988;DHT22;4529;51.360;12.474;2022-10-13T01:59:45;9.10;99.90
8988;DHT22;4529;51.360;12.474;2022-10-13T02:04:59;9.00;99.90
8988;DHT22;4529;51.360;12.474;2022-10-13T02:10:04;9.00;99.90
8988;DHT22;4529;51.360;12.474;2022-10-13T02:15:05;9.00;99.90
8988;DHT22;4529;51.360;12.474;2022-10-13T02:20:09;8.90;99.90
8988;DHT22;4529;51.360;12.474;2022-10-13T02:25:12;8.80;99.90
8988;DHT22;4529;51.360;12.474;2022-10-13T02:30:21;9.00;99.90
8988;DHT22;4529;51.360;12.474;2022-10-13T02:35:23;8.90;99.90
8988;DHT22;4529;51.360;12.474;2022-10-13T02:40:26;9.00;99.90
8988;DHT22;4529;51.360;12.474;2022-10-13T02:45:30;9.10;99.90
8988;DHT22;4529;51.360;12.474;2022-10-13T02:50:33;9.30;99.90
8988;DHT22;4529;51.360;12.474;2022-10-13T02:55:37;9.30;99.90
8988;DHT22;4529;51.360;12.474;2022-10-13T03:00:40;9.40;99.90
8988;DHT22;4529;51.360;12.474;2022-10-13T03:05:44;9.60;99.90
8988;DHT22;4529;51.360;12.474;2022-10-13T03:10:47;9.70;99.90
8988;DHT22;4529;51.360;12.474;2022-10-13T03:15:50;9.70;99.90
8988;DHT22;4529;51.360;12.474;2022-10-13T03:21:03;9.70;99.90
8988;DHT22;4529;51.360;12.474;2022-10-13T03:26:06;9.70;99.90
8988;DHT22;4529;51.360;12.474;2022-10-13T03:31:10;9.60;99.90
8988;DHT22;4529;51.360;12.474;2022-10-13T03:36:13;9.50;99.90
8988;DHT22;4529;51.360;12.474;2022-10-13T03:41:17;9.40;99.90
8988;DHT22;4529;51.360;12.474;2022-10-13T03:46:20;9.20;99.90
8988;DHT22;4529;51.360;12.474;2022-10-13T03:51:23;9.10;99.90
8988;DHT22;4529;51.360;12.474;2022-10-13T03:56:27;8.90;99.90
8988;DHT22;4529;51.360;12.474;2022-10-13T04:01:31;8.90;99.90
8988;DHT22;4529;51.360;12.474;2022-10-13T04:06:34;8.80;99.90
8988;DHT22;4529;51.360;12.474;2022-10-13T04:11:37;8.80;99.90
8988;DHT22;4529;51.360;12.474;2022-10-13T04:16:41;8.80;99.90
8988;DHT22;4529;51.360;12.474;2022-10-13T04:21:45;8.80;99.90
8988;DHT22;4529;51.360;12.474;2022-10-13T04:26:50;8.80;99.90
8988;DHT22;4529;51.360;12.474;2022-10-13T04:31:54;8.70;99.90
8988;DHT22;4529;51.360;12.474;2022-10-13T04:36:58;8.70;99.90
8988;DHT22;4529;51.360;12.474;2022-10-13T04:42:02;8.70;99.90
8988;DHT22;4529;51.360;12.474;2022-10-13T04:47:06;8.70;99.90
8988;DHT22;4529;51.360;12.474;2022-10-13T04:52:10;8.80;99.90
8988;DHT22;4529;51.360;12.474;2022-10-13T04:57:14;9.00;99.90
8988;DHT22;4529;51.360;12.474;2022-10-13T05:02:18;9.10;99.90
8988;DHT22;4529;51.360;12.474;2022-10-13T05:07:23;9.20;99.90
8988;DHT22;4529;51.360;12.474;2022-10-13T05:12:27;9.40;99.90
8988;DHT22;4529;51.360;12.474;2022-10-13T05:17:31;9.40;99.90
8988;DHT22;4529;51.360;12.474;2022-10-13T05:22:35;9.50;99.90
8988;DHT22;4529;51.360;12.474;2022-10-13T05:27:39;9.60;99.90
8988;DHT22;4529;51.360;12.474;2022-10-13T05:32:43;9.70;99.90
8988;DHT22;4529;51.360;12.474;2022-10-13T05:37:47;9.90;99.90
8988;DHT22;4529;51.360;12.474;2022-10-13T05:42:51;10.10;99.90
8988;DHT22;4529;51.360;12.474;2022-10-13T05:47:55;10.10;99.90
8988;DHT22;4529;51.360;12.474;2022-10-13T05:52:58;10.30;99.90
8988;DHT22;4529;51.360;12.474;2022-10-13T05:58:02;10.40;99.90
8988;DHT22;4529;51.360;12.474;2022-10-13T06:03:11;10.50;99.90
8988;DHT22;4529;51.360;12.474;2022-10-13T06:08:14;10.70;99.90
8988;DHT22;4529;51.360;12.474;2022-10-13T06:13:15;10.90;99.90
8988;DHT22;4529;51.360;12.474;2022-10-13T06:18:20;11.10;99.90
8988;DHT22;4529;51.360;12.474;2022-10-13T06:23:23;11.10;99.90
8988;DHT22;4529;51.360;12.474;2022-10-13T06:28:27;11.30;99.90
8988;DHT22;4529;51.360;12.474;2022-10-13T06:33:30;11.40;99.90
8988;DHT22;4529;51.360;12.474;2022-10-13T06:38:33;11.50;99.90
8988;DHT22;4529;51.360;12.474;2022-10-13T06:43:37;11.60;99.90
8988;DHT22;4529;51.360;12.474;2022-10-13T06:48:41;11.90;99.90
8988;DHT22;4529;51.360;12.474;2022-10-13T06:53:45;12.00;99.90
8988;DHT22;4529;51.360;12.474;2022-10-13T06:58:49;12.10;99.90
8988;DHT22;4529;51.360;12.474;2022-10-13T07:03:53;12.40;99.90
8988;DHT22;4529;51.360;12.474;2022-10-13T07:08:57;12.30;99.90
8988;DHT22;4529;51.360;12.474;2022-10-13T07:14:00;12.60;99.90
8988;DHT22;4529;51.360;12.474;2022-10-13T07:19:04;12.70;99.90
8988;DHT22;4529;51.360;12.474;2022-10-13T07:24:08;13.00;99.90
8988;DHT22;4529;51.360;12.474;2022-10-13T07:29:12;13.10;99.90
8988;DHT22;4529;51.360;12.474;2022-10-13T07:34:16;13.30;99.90
8988;DHT22;4529;51.360;12.474;2022-10-13T07:39:20;13.30;99.90
8988;DHT22;4529;51.360;12.474;2022-10-13T07:44:23;13.40;99.90
8988;DHT22;4529;51.360;12.474;2022-10-13T07:49:27;13.60;99.90
8988;DHT22;4529;51.360;12.474;2022-10-13T07:54:30;13.70;99.90
8988;DHT22;4529;51.360;12.474;2022-10-13T07:59:34;13.80;99.90
8988;DHT22;4529;51.360;12.474;2022-10-13T08:04:37;13.90;99.90
8988;DHT22;4529;51.360;12.474;2022-10-13T08:09:41;14.10;99.90
8988;DHT22;4529;51.360;12.474;2022-10-13T08:14:44;14.30;99.90
8988;DHT22;4529;51.360;12.474;2022-10-13T08:19:53;14.40;99.90
8988;DHT22;4529;51.360;12.474;2022-10-13T08:24:56;14.40;99.90
8988;DHT22;4529;51.360;12.474;2022-10-13T08:30:00;14.60;99.90
8988;DHT22;4529;51.360;12.474;2022-10-13T08:35:03;14.90;99.90
8988;DHT22;4529;51.360;12.474;2022-10-13T08:40:10;15.00;99.90
8988;DHT22;4529;51.360;12.474;2022-10-13T08:45:22;15.00;99.90
8988;DHT22;4529;51.360;12.474;2022-10-13T08:50:26;15.20;99.90
8988;DHT22;4529;51.360;12.474;2022-10-13T09:00:37;15.30;99.90
8988;DHT22;4529;51.360;12.474;2022-10-13T09:05:45;15.40;99.90
8988;DHT22;4529;51.360;12.474;2022-10-13T09:10:50;15.50;99.90
8988;DHT22;4529;51.360;12.474;2022-10-13T09:15:53;15.50;99.90
8988;DHT22;4529;51.360;12.474;2022-10-13T09:21:22;15.70;99.90
8988;DHT22;4529;51.360;12.474;2022-10-13T09:26:23;15.80;99.90
8988;DHT22;4529;51.360;12.474;2022-10-13T09:31:27;15.80;99.90
8988;DHT22;4529;51.360;12.474;2022-10-13T09:36:32;15.80;99.90
8988;DHT22;4529;51.360;12.474;2022-10-13T09:41:36;15.80;99.90
8988;DHT22;4529;51.360;12.474;2022-10-13T09:46:52;15.80;99.90
8988;DHT22;4529;51.360;12.474;2022-10-13T09:52:13;15.90;99.90
8988;DHT22;4529;51.360;12.474;2022-10-13T09:57:30;16.00;99.90
8988;DHT22;4529;51.360;12.474;2022-10-13T10:02:40;15.90;99.90
8988;DHT22;4529;51.360;12.474;2022-10-13T10:07:40;16.40;99.90
8988;DHT22;4529;51.360;12.474;2022-10-13T10:12:44;16.40;99.90
8988;DHT22;4529;51.360;12.474;2022-10-13T10:17:55;16.60;99.90
8988;DHT22;4529;51.360;12.474;2022-10-13T10:28:48;16.50;99.90
8988;DHT22;4529;51.360;12.474;2022-10-13T10:44:40;16.40;99.90
8988;DHT22;4529;51.360;12.474;2022-10-13T10:49:43;16.40;99.90
8988;DHT22;4529;51.360;12.474;2022-10-13T10:55:08;16.50;99.90
8988;DHT22;4529;51.360;12.474;2022-10-13T11:00:07;16.60;99.90
8988;DHT22;4529;51.360;12.474;2022-10-13T11:05:08;16.80;99.90
8988;DHT22;4529;51.360;12.474;2022-10-13T11:10:16;16.70;99.90
8988;DHT22;4529;51.360;12.474;2022-10-13T11:15:23;16.90;99.90
8988;DHT22;4529;51.360;12.474;2022-10-13T11:25:45;17.00;99.90
8988;DHT22;4529;51.360;12.474;2022-10-13T11:31:22;16.90;99.90
8988;DHT22;4529;51.360;12.474;2022-10-13T11:36:50;16.70;99.90
8988;DHT22;4529;51.360;12.474;2022-10-13T11:53:16;16.60;99.90
8988;DHT22;4529;51.360;12.474;2022-10-13T11:58:28;16.60;99.90
8988;DHT22;4529;51.360;12.474;2022-10-13T12:03:37;16.70;99.90
8988;DHT22;4529;51.360;12.474;2022-10-13T12:08:39;16.80;99.90
8988;DHT22;4529;51.360;12.474;2022-10-13T12:13:43;16.80;99.90
8988;DHT22;4529;51.360;12.474;2022-10-13T12:18:46;16.90;99.90
8988;DHT22;4529;51.360;12.474;2022-10-13T12:23:50;16.80;99.90
8988;DHT22;4529;51.360;12.474;2022-10-13T12:29:02;16.80;99.90
8988;DHT22;4529;51.360;12.474;2022-10-13T12:39:21;17.20;99.90
8988;DHT22;4529;51.360;12.474;2022-10-13T12:44:28;17.40;99.90
8988;DHT22;4529;51.360;12.474;2022-10-13T12:49:32;17.30;99.90
8988;DHT22;4529;51.360;12.474;2022-10-13T12:54:54;17.10;99.90
8988;DHT22;4529;51.360;12.474;2022-10-13T12:59:42;17.10;99.90
8988;DHT22;4529;51.360;12.474;2022-10-13T13:04:45;17.10;99.90
8988;DHT22;4529;51.360;12.474;2022-10-13T13:20:30;17.30;99.90
8988;DHT22;4529;51.360;12.474;2022-10-13T13:25:32;17.10;99.90
8988;DHT22;4529;51.360;12.474;2022-10-13T13:30:36;17.00;99.90
8988;DHT22;4529;51.360;12.474;2022-10-13T13:35:39;17.10;99.90
8988;DHT22;4529;51.360;12.474;2022-10-13T13:40:43;17.20;99.90
8988;DHT22;4529;51.360;12.474;2022-10-13T13:45:46;17.40;99.90
8988;DHT22;4529;51.360;12.474;2022-10-13T13:50:50;17.40;99.90
8988;DHT22;4529;51.360;12.474;2022-10-13T13:55:53;17.50;99.90
8988;DHT22;4529;51.360;12.474;2022-10-13T14:00:57;17.40;99.90
8988;DHT22;4529;51.360;12.474;2022-10-13T14:06:00;17.30;99.90
8988;DHT22;4529;51.360;12.474;2022-10-13T14:11:07;17.10;99.90
8988;DHT22;4529;51.360;12.474;2022-10-13T14:16:15;17.20;99.90
8988;DHT22;4529;51.360;12.474;2022-10-13T14:21:17;17.20;99.90
8988;DHT22;4529;51.360;12.474;2022-10-13T14:26:21;17.20;99.90
8988;DHT22;4529;51.360;12.474;2022-10-13T14:31:25;17.10;99.90
8988;DHT22;4529;51.360;12.474;2022-10-13T14:36:29;17.00;99.90
8988;DHT22;4529;51.360;12.474;2022-10-13T14:41:33;17.00;99.90
8988;DHT22;4529;51.360;12.474;2022-10-13T14:46:38;16.90;99.90
8988;DHT22;4529;51.360;12.474;2022-10-13T14:51:42;16.90;99.90
8988;DHT22;4529;51.360;12.474;2022-10-13T14:56:46;16.90;99.90
8988;DHT22;4529;51.360;12.474;2022-10-13T15:01:50;17.40;99.90
8988;DHT22;4529;51.360;12.474;2022-10-13T15:06:54;17.60;99.90
8988;DHT22;4529;51.360;12.474;2022-10-13T15:11:58;17.00;99.90
8988;DHT22;4529;51.360;12.474;2022-10-13T15:17:02;16.80;99.90
8988;DHT22;4529;51.360;12.474;2022-10-13T15:22:06;16.80;99.90
8988;DHT22;4529;51.360;12.474;2022-10-13T15:27:09;16.60;99.90
8988;DHT22;4529;51.360;12.474;2022-10-13T15:32:14;16.50;99.90
8988;DHT22;4529;51.360;12.474;2022-10-13T15:37:16;16.50;99.90
8988;DHT22;4529;51.360;12.474;2022-10-13T15:42:19;16.30;99.90
8988;DHT22;4529;51.360;12.474;2022-10-13T15:47:23;16.20;99.90
8988;DHT22;4529;51.360;12.474;2022-10-13T15:52:26;16.20;99.90
8988;DHT22;4529;51.360;12.474;2022-10-13T15:57:30;16.20;99.90
8988;DHT22;4529;51.360;12.474;2022-10-13T16:02:33;16.20;99.90
8988;DHT22;4529;51.360;12.474;2022-10-13T16:07:37;16.20;99.90
8988;DHT22;4529;51.360;12.474;2022-10-13T16:12:41;16.10;99.90
8988;DHT22;4529;51.360;12.474;2022-10-13T16:17:44;16.00;99.90
8988;DHT22;4529;51.360;12.474;2022-10-13T16:22:49;15.90;99.90
8988;DHT22;4529;51.360;12.474;2022-10-13T16:27:53;15.80;99.90
8988;DHT22;4529;51.360;12.474;2022-10-13T16:32:57;15.80;99.90
8988;DHT22;4529;51.360;12.474;2022-10-13T16:38:00;15.80;99.90
8988;DHT22;4529;51.360;12.474;2022-10-13T16:43:05;15.70;99.90
8988;DHT22;4529;51.360;12.474;2022-10-13T16:48:09;15.70;99.90
8988;DHT22;4529;51.360;12.474;2022-10-13T16:53:16;15.60;99.90
8988;DHT22;4529;51.360;12.474;2022-10-13T16:58:19;15.60;99.90
8988;DHT22;4529;51.360;12.474;2022-10-13T17:03:23;15.50;99.90
8988;DHT22;4529;51.360;12.474;2022-10-13T17:08:26;15.50;99.90
8988;DHT22;4529;51.360;12.474;2022-10-13T17:13:30;15.30;99.90
8988;DHT22;4529;51.360;12.474;2022-10-13T17:18:35;15.00;99.90
8988;DHT22;4529;51.360;12.474;2022-10-13T17:23:39;14.90;99.90
8988;DHT22;4529;51.360;12.474;2022-10-13T17:28:42;14.90;99.90
8988;DHT22;4529;51.360;12.474;2022-10-13T17:33:46;14.80;99.90
8988;DHT22;4529;51.360;12.474;2022-10-13T17:38:49;14.90;99.90
8988;DHT22;4529;51.360;12.474;2022-10-13T17:43:53;14.90;99.90
8988;DHT22;4529;51.360;12.474;2022-10-13T17:48:56;14.90;99.90
8988;DHT22;4529;51.360;12.474;2022-10-13T17:53:59;14.90;99.90
8988;DHT22;4529;51.360;12.474;2022-10-13T17:59:03;14.80;99.90
8988;DHT22;4529;51.360;12.474;2022-10-13T18:04:09;14.70;99.90
8988;DHT22;4529;51.360;12.474;2022-10-13T18:09:14;14.70;99.90
8988;DHT22;4529;51.360;12.474;2022-10-13T18:14:20;14.50;99.90
8988;DHT22;4529;51.360;12.474;2022-10-13T18:19:23;14.50;99.90
8988;DHT22;4529;51.360;12.474;2022-10-13T18:24:27;14.40;99.90
8988;DHT22;4529;51.360;12.474;2022-10-13T18:29:31;14.50;99.90
8988;DHT22;4529;51.360;12.474;2022-10-13T18:34:34;14.30;99.90
8988;DHT22;4529;51.360;12.474;2022-10-13T18:39:37;14.30;99.90
8988;DHT22;4529;51.360;12.474;2022-10-13T18:44:41;14.40;99.90
8988;DHT22;4529;51.360;12.474;2022-10-13T18:49:47;14.40;99.90
8988;DHT22;4529;51.360;12.474;2022-10-13T18:54:51;14.40;99.90
8988;DHT22;4529;51.360;12.474;2022-10-13T18:59:54;14.40;99.90
8988;DHT22;4529;51.360;12.474;2022-10-13T19:04:58;14.40;99.90
8988;DHT22;4529;51.360;12.474;2022-10-13T19:10:01;14.50;99.90
8988;DHT22;4529;51.360;12.474;2022-10-13T19:15:05;14.40;99.90
8988;DHT22;4529;51.360;12.474;2022-10-13T19:20:09;14.40;99.90
8988;DHT22;4529;51.360;12.474;2022-10-13T19:25:12;14.30;99.90
8988;DHT22;4529;51.360;12.474;2022-10-13T19:30:16;14.30;99.90
8988;DHT22;4529;51.360;12.474;2022-10-13T19:35:20;14.30;99.90
8988;DHT22;4529;51.360;12.474;2022-10-13T19:40:23;14.20;99.90
8988;DHT22;4529;51.360;12.474;2022-10-13T19:45:26;14.20;99.90
8988;DHT22;4529;51.360;12.474;2022-10-13T19:50:31;14.30;99.90
8988;DHT22;4529;51.360;12.474;2022-10-13T19:55:40;14.10;99.90
8988;DHT22;4529;51.360;12.474;2022-10-13T20:00:43;14.00;99.90
8988;DHT22;4529;51.360;12.474;2022-10-13T20:05:47;13.90;99.90
8988;DHT22;4529;51.360;12.474;2022-10-13T20:10:51;13.70;99.90
8988;DHT22;4529;51.360;12.474;2022-10-13T20:15:54;13.70;99.90
8988;DHT22;4529;51.360;12.474;2022-10-13T20:21:02;13.60;99.90
8988;DHT22;4529;51.360;12.474;2022-10-13T20:26:09;13.60;99.90
8988;DHT22;4529;51.360;12.474;2022-10-13T20:31:12;13.50;99.90
8988;DHT22;4529;51.360;12.474;2022-10-13T20:36:16;13.40;99.90
8988;DHT22;4529;51.360;12.474;2022-10-13T20:41:27;13.40;99.90
8988;DHT22;4529;51.360;12.474;2022-10-13T20:46:29;13.30;99.90
8988;DHT22;4529;51.360;12.474;2022-10-13T20:51:34;13.20;99.90
8988;DHT22;4529;51.360;12.474;2022-10-13T20:56:38;13.20;99.90
8988;DHT22;4529;51.360;12.474;2022-10-13T21:01:41;13.20;99.90
8988;DHT22;4529;51.360;12.474;2022-10-13T21:06:45;13.20;99.90
8988;DHT22;4529;51.360;12.474;2022-10-13T21:11:48;13.10;99.90
8988;DHT22;4529;51.360;12.474;2022-10-13T21:16:52;13.10;99.90
8988;DHT22;4529;51.360;12.474;2022-10-13T21:21:55;13.20;99.90
8988;DHT22;4529;51.360;12.474;2022-10-13T21:26:59;13.10;99.90
8988;DHT22;4529;51.360;12.474;2022-10-13T21:32:03;13.10;99.90
8988;DHT22;4529;51.360;12.474;2022-10-13T21:37:07;13.10;99.90
8988;DHT22;4529;51.360;12.474;2022-10-13T21:42:11;13.10;99.90
8988;DHT22;4529;51.360;12.474;2022-10-13T21:47:14;13.10;99.90
8988;DHT22;4529;51.360;12.474;2022-10-13T21:52:18;13.10;99.90
8988;DHT22;4529;51.360;12.474;2022-10-13T21:57:21;13.00;99.90
8988;DHT22;4529;51.360;12.474;2022-10-13T22:02:25;13.00;99.90
8988;DHT22;4529;51.360;12.474;2022-10-13T22:07:28;13.20;99.90
8988;DHT22;4529;51.360;12.474;2022-10-13T22:12:32;13.20;99.90
8988;DHT22;4529;51.360;12.474;2022-10-13T22:17:37;13.30;99.90
8988;DHT22;4529;51.360;12.474;2022-10-13T22:22:41;13.30;99.90
8988;DHT22;4529;51.360;12.474;2022-10-13T22:27:45;13.40;99.90
8988;DHT22;4529;51.360;12.474;2022-10-13T22:32:49;13.40;99.90
8988;DHT22;4529;51.360;12.474;2022-10-13T22:37:52;13.40;99.90
8988;DHT22;4529;51.360;12.474;2022-10-13T22:42:56;13.40;99.90
8988;DHT22;4529;51.360;12.474;2022-10-13T22:47:59;13.40;99.90
8988;DHT22;4529;51.360;12.474;2022-10-13T22:53:03;13.50;99.90
8988;DHT22;4529;51.360;12.474;2022-10-13T22:58:06;13.50;99.90
8988;DHT22;4529;51.360;12.474;2022-10-13T23:03:11;13.50;99.90
8988;DHT22;4529;51.360;12.474;2022-10-13T23:08:13;13.60;99.90
8988;DHT22;4529;51.360;12.474;2022-10-13T23:13:17;13.60;99.90
8988;DHT22;4529;51.360;12.474;2022-10-13T23:18:20;13.50;99.90
8988;DHT22;4529;51.360;12.474;2022-10-13T23:23:24;13.30;99.90
8988;DHT22;4529;51.360;12.474;2022-10-13T23:28:28;13.30;99.90
8988;DHT22;4529;51.360;12.474;2022-10-13T23:33:33;13.20;99.90
8988;DHT22;4529;51.360;12.474;2022-10-13T23:38:37;13.20;99.90
8988;DHT22;4529;51.360;12.474;2022-10-13T23:43:41;13.20;99.90
8988;DHT22;4529;51.360;12.474;2022-10-13T23:48:45;13.20;99.90
8988;DHT22;4529;51.360;12.474;2022-10-13T23:53:48;13.20;99.90
8988;DHT22;4529;51.360;12.474;2022-10-13T23:58:52;13.20;99.90
